Terminal Aerodrome Forecast
Issued by NWS Twin Cities, MN

Home | Current Version | Previous Version | Graphics & Text | Print | Product List | Glossary On
Versions: 1 2 3 4 5 6 7 8 9 10 11 12 13 14 15 16 17 18 19 20 21 22 23 24 25 26 27 28 29 30 31 32 33 34
280
FTUS43 KMPX 160536
TAFMSP
TAF
KMSP 160536Z 1606/1712 10005KT P6SM BKN120 OVC200
     FM160700 10005KT P6SM VCSH OVC050
      TEMPO 1607/1609 4SM -TSRA OVC035CB
     FM161000 12007KT 5SM -SHRA BR OVC025
     FM161400 13009KT 5SM -SHRA BR OVC008
     FM161800 13009KT P6SM OVC015
     FM162200 16008KT 6SM -SHRA BKN035
      TEMPO 1700/1704 3SM TSRA OVC030CB
     FM170400 05006KT 4SM SHRA BR OVC012=

USA.gov is the U.S. government's official web portal to all federal, state and local government web resources and services.